Vremea mâine în Brad - Romania

Vrei sa afli care e starea vremii acum in Arad - Romania? Dorim sa iti furnizam starea vremii pentru Arad - Romania. Starea vremii Arad - Romania pentru astazi.

Vremea mâine în Brad

Temperatura minimă:
9.4 °C

Temperatura maximă:
21.8 °C

Mâine va fi: Patchy rain nearby
Precipitații: 83 %
Umiditate: 76%
Viteza maximă vânt mâine:
11.9 km/h

Evoluția vremii in Brad pe ore mâine

Ora: 09:00
Temperatura: °C
Sansa de precipitatii: %
Ora Descriere Temp Se simte Precipitatii Umiditate Vant
00:00Ceata10.4°10.9°0%95%SE 3.2 KM/H
01:00Ceata9.4°9.4°0%96%SE 2.2 KM/H
02:00Ceata9.6°9.6°0%96%E 2.5 KM/H
03:00Ceata10.3°10.4°0%95%E 2.5 KM/H
04:00Acoperit de nori10.4°10.4°0%95%NE 0.4 KM/H
05:00Ceata10.6°10.6°0%95%NNW 1.1 KM/H
06:00Ceata10.3°10.3°0%95%N 1.1 KM/H
07:00Ceata11°11°0%94%E 2.9 KM/H
08:00Senin12.9°13.6°0%92%ESE 3.2 KM/H
09:00Patchy rain nearby14.3°14.4°62%86%SSE 2.5 KM/H
10:00Patchy rain nearby15.9°15.9°83%78%SSW 2.5 KM/H
11:00Patchy rain nearby17.6°17.6°65%68%SW 2.2 KM/H
12:00Patchy rain nearby20.1°20.1°83%56%WSW 2.5 KM/H
13:00Patchy rain nearby21.3°21.3°72%51%W 4.3 KM/H
14:00Patchy rain nearby21.4°21.4°100%49%W 6.8 KM/H
15:00Patchy rain nearby21.5°21.5°100%47%WNW 9.4 KM/H
16:00Patchy rain nearby21.8°21.8°76%45%WNW 10.4 KM/H
17:00Patchy rain nearby21.1°21.1°100%48%WNW 11.9 KM/H
18:00Patchy rain nearby19.7°19.7°64%57%NW 10.4 KM/H
19:00Patchy rain nearby17.1°17.1°100%68%NNW 6.5 KM/H
20:00Patchy rain nearby14.7°15.1°77%76%N 4.7 KM/H
21:0013.3°13.9°0%79%NNE 3.6 KM/H
22:0012.6°12.8°0%81%ENE 4.7 KM/H
23:00Burniță ușoară11.9°11.9°100%85%ENE 5 KM/H




tutorials